sensor_id;sensor_type;location;lat;lon;timestamp;pressure;altitude;pressure_sealevel;temperature;humidity
64230;BME280;50547;49.498;0.092;2023-07-13T00:02:14;1013.27;;;18.38;81.82
64230;BME280;50547;49.498;0.092;2023-07-13T00:04:43;1013.35;;;18.36;82.00
64230;BME280;50547;49.498;0.092;2023-07-13T00:07:13;1013.29;;;18.49;81.59
64230;BME280;50547;49.498;0.092;2023-07-13T00:09:42;1013.25;;;18.38;81.89
64230;BME280;50547;49.498;0.092;2023-07-13T00:12:23;1013.31;;;18.32;81.84
64230;BME280;50547;49.498;0.092;2023-07-13T00:14:52;1013.25;;;18.38;81.75
64230;BME280;50547;49.498;0.092;2023-07-13T00:17:21;1013.12;;;18.48;81.45
64230;BME280;50547;49.498;0.092;2023-07-13T00:19:51;1013.25;;;18.37;81.78
64230;BME280;50547;49.498;0.092;2023-07-13T00:22:20;1013.35;;;18.33;81.92
64230;BME280;50547;49.498;0.092;2023-07-13T00:24:49;1013.31;;;18.54;81.66
64230;BME280;50547;49.498;0.092;2023-07-13T00:27:18;1013.35;;;18.34;82.18
64230;BME280;50547;49.498;0.092;2023-07-13T00:29:48;1013.29;;;18.42;82.13
64230;BME280;50547;49.498;0.092;2023-07-13T00:32:17;1013.31;;;18.54;81.75
64230;BME280;50547;49.498;0.092;2023-07-13T00:34:46;1013.33;;;18.51;82.10
64230;BME280;50547;49.498;0.092;2023-07-13T00:37:15;1013.33;;;18.56;82.21
64230;BME280;50547;49.498;0.092;2023-07-13T00:39:44;1013.23;;;18.53;82.41
64230;BME280;50547;49.498;0.092;2023-07-13T00:42:13;1013.31;;;18.48;82.51
64230;BME280;50547;49.498;0.092;2023-07-13T00:45:01;1013.12;;;18.47;82.32
64230;BME280;50547;49.498;0.092;2023-07-13T00:47:30;1013.27;;;18.48;82.77
64230;BME280;50547;49.498;0.092;2023-07-13T00:49:59;1013.35;;;18.51;82.77
64230;BME280;50547;49.498;0.092;2023-07-13T00:52:29;1013.06;;;18.41;83.19
64230;BME280;50547;49.498;0.092;2023-07-13T00:54:58;1013.35;;;18.38;83.30
64230;BME280;50547;49.498;0.092;2023-07-13T00:57:28;1013.33;;;18.27;83.64
64230;BME280;50547;49.498;0.092;2023-07-13T00:59:59;1013.33;;;18.32;83.37
64230;BME280;50547;49.498;0.092;2023-07-13T01:02:29;1013.37;;;18.25;83.24
64230;BME280;50547;49.498;0.092;2023-07-13T01:04:58;1013.43;;;18.28;83.02
64230;BME280;50547;49.498;0.092;2023-07-13T01:07:27;1013.37;;;18.15;82.71
64230;BME280;50547;49.498;0.092;2023-07-13T01:09:56;1013.35;;;18.23;81.86
64230;BME280;50547;49.498;0.092;2023-07-13T01:12:26;1013.39;;;18.21;81.58
64230;BME280;50547;49.498;0.092;2023-07-13T01:14:57;1013.37;;;18.26;81.25
64230;BME280;50547;49.498;0.092;2023-07-13T01:17:27;1013.46;;;18.36;80.95
64230;BME280;50547;49.498;0.092;2023-07-13T01:19:57;1013.29;;;18.39;80.88
64230;BME280;50547;49.498;0.092;2023-07-13T01:22:26;1013.39;;;18.32;81.00
64230;BME280;50547;49.498;0.092;2023-07-13T01:24:55;1013.39;;;18.26;80.94
64230;BME280;50547;49.498;0.092;2023-07-13T01:27:26;1013.43;;;18.34;80.66
64230;BME280;50547;49.498;0.092;2023-07-13T01:29:55;1013.46;;;18.46;80.73
64230;BME280;50547;49.498;0.092;2023-07-13T01:32:24;1013.41;;;18.57;80.30
64230;BME280;50547;49.498;0.092;2023-07-13T01:34:54;1013.48;;;18.54;81.09
64230;BME280;50547;49.498;0.092;2023-07-13T01:37:24;1013.46;;;18.43;81.54
64230;BME280;50547;49.498;0.092;2023-07-13T01:39:53;1013.50;;;18.34;82.08
64230;BME280;50547;49.498;0.092;2023-07-13T01:42:22;1013.62;;;18.33;82.11
64230;BME280;50547;49.498;0.092;2023-07-13T01:44:51;1013.52;;;18.42;81.98
64230;BME280;50547;49.498;0.092;2023-07-13T01:47:21;1013.48;;;18.35;82.10
64230;BME280;50547;49.498;0.092;2023-07-13T01:49:51;1013.54;;;18.45;81.96
64230;BME280;50547;49.498;0.092;2023-07-13T01:52:20;1013.43;;;18.20;83.01
64230;BME280;50547;49.498;0.092;2023-07-13T01:54:49;1013.54;;;18.34;82.43
64230;BME280;50547;49.498;0.092;2023-07-13T01:57:18;1013.37;;;18.43;82.07
64230;BME280;50547;49.498;0.092;2023-07-13T01:59:48;1013.37;;;18.32;82.83
64230;BME280;50547;49.498;0.092;2023-07-13T02:02:17;1013.48;;;18.30;82.48
64230;BME280;50547;49.498;0.092;2023-07-13T02:04:47;1013.43;;;18.35;82.22
64230;BME280;50547;49.498;0.092;2023-07-13T02:07:17;1013.41;;;18.30;82.49
64230;BME280;50547;49.498;0.092;2023-07-13T02:09:46;1013.43;;;18.36;82.32
64230;BME280;50547;49.498;0.092;2023-07-13T02:12:15;1013.44;;;18.36;82.33
64230;BME280;50547;49.498;0.092;2023-07-13T02:14:44;1013.44;;;18.29;82.42
64230;BME280;50547;49.498;0.092;2023-07-13T02:17:14;1013.46;;;18.36;82.25
64230;BME280;50547;49.498;0.092;2023-07-13T02:19:43;1013.39;;;18.48;82.06
64230;BME280;50547;49.498;0.092;2023-07-13T02:22:12;1013.43;;;18.22;82.71
64230;BME280;50547;49.498;0.092;2023-07-13T02:24:41;1013.41;;;18.36;82.65
64230;BME280;50547;49.498;0.092;2023-07-13T02:27:10;1013.35;;;18.24;82.39
64230;BME280;50547;49.498;0.092;2023-07-13T02:29:39;1013.35;;;18.33;82.24
64230;BME280;50547;49.498;0.092;2023-07-13T02:32:08;1013.33;;;18.42;81.73
64230;BME280;50547;49.498;0.092;2023-07-13T02:34:38;1013.29;;;18.33;81.76
64230;BME280;50547;49.498;0.092;2023-07-13T02:37:07;1013.25;;;18.22;82.27
64230;BME280;50547;49.498;0.092;2023-07-13T02:39:36;1013.27;;;18.36;81.27
64230;BME280;50547;49.498;0.092;2023-07-13T02:42:06;1013.27;;;18.40;81.76
64230;BME280;50547;49.498;0.092;2023-07-13T02:44:35;1013.27;;;18.52;81.53
64230;BME280;50547;49.498;0.092;2023-07-13T02:47:04;1013.33;;;18.46;81.41
64230;BME280;50547;49.498;0.092;2023-07-13T02:49:34;1013.12;;;18.44;81.46
64230;BME280;50547;49.498;0.092;2023-07-13T02:52:04;1013.27;;;18.34;81.85
64230;BME280;50547;49.498;0.092;2023-07-13T02:54:33;1013.21;;;18.42;81.73
64230;BME280;50547;49.498;0.092;2023-07-13T02:57:03;1013.21;;;18.39;81.78
64230;BME280;50547;49.498;0.092;2023-07-13T02:59:32;1013.12;;;18.41;82.15
64230;BME280;50547;49.498;0.092;2023-07-13T03:02:02;1013.23;;;18.40;82.06
64230;BME280;50547;49.498;0.092;2023-07-13T03:04:31;1013.29;;;18.36;82.01
64230;BME280;50547;49.498;0.092;2023-07-13T03:07:00;1013.25;;;18.28;82.27
64230;BME280;50547;49.498;0.092;2023-07-13T03:09:30;1013.10;;;18.26;82.30
64230;BME280;50547;49.498;0.092;2023-07-13T03:12:00;1013.31;;;18.21;82.46
64230;BME280;50547;49.498;0.092;2023-07-13T03:14:29;1013.35;;;18.27;82.13
64230;BME280;50547;49.498;0.092;2023-07-13T03:16:59;1013.31;;;18.32;82.14
64230;BME280;50547;49.498;0.092;2023-07-13T03:19:28;1013.37;;;18.26;82.28
64230;BME280;50547;49.498;0.092;2023-07-13T03:21:57;1013.31;;;18.24;82.12
64230;BME280;50547;49.498;0.092;2023-07-13T03:24:26;1013.37;;;18.36;81.71
64230;BME280;50547;49.498;0.092;2023-07-13T03:26:55;1013.31;;;18.36;81.93
64230;BME280;50547;49.498;0.092;2023-07-13T03:29:24;1013.39;;;18.32;82.18
64230;BME280;50547;49.498;0.092;2023-07-13T03:31:53;1013.35;;;18.43;81.23
64230;BME280;50547;49.498;0.092;2023-07-13T03:34:23;1013.39;;;18.35;81.65
64230;BME280;50547;49.498;0.092;2023-07-13T03:36:54;1013.41;;;18.31;81.47
64230;BME280;50547;49.498;0.092;2023-07-13T03:39:23;1013.35;;;18.43;81.29
64230;BME280;50547;49.498;0.092;2023-07-13T03:41:52;1013.31;;;18.49;81.35
64230;BME280;50547;49.498;0.092;2023-07-13T03:44:22;1013.35;;;18.43;80.84
64230;BME280;50547;49.498;0.092;2023-07-13T03:46:51;1013.39;;;18.48;80.83
64230;BME280;50547;49.498;0.092;2023-07-13T03:49:20;1013.41;;;18.57;81.16
64230;BME280;50547;49.498;0.092;2023-07-13T03:51:49;1013.44;;;18.52;81.47
64230;BME280;50547;49.498;0.092;2023-07-13T03:54:18;1013.37;;;18.36;81.18
64230;BME280;50547;49.498;0.092;2023-07-13T03:56:48;1013.37;;;18.56;80.36
64230;BME280;50547;49.498;0.092;2023-07-13T03:59:17;1013.50;;;18.54;80.53
64230;BME280;50547;49.498;0.092;2023-07-13T04:01:46;1013.48;;;18.52;80.95
64230;BME280;50547;49.498;0.092;2023-07-13T04:04:15;1013.50;;;18.51;82.30
64230;BME280;50547;49.498;0.092;2023-07-13T04:06:44;1013.50;;;18.41;82.93
64230;BME280;50547;49.498;0.092;2023-07-13T04:09:13;1013.54;;;18.34;83.25
64230;BME280;50547;49.498;0.092;2023-07-13T04:11:43;1013.54;;;18.34;83.95
64230;BME280;50547;49.498;0.092;2023-07-13T04:14:12;1013.41;;;18.11;85.82
64230;BME280;50547;49.498;0.092;2023-07-13T04:16:41;1013.50;;;18.01;86.69
64230;BME280;50547;49.498;0.092;2023-07-13T04:19:10;1013.52;;;17.90;87.25
64230;BME280;50547;49.498;0.092;2023-07-13T04:21:39;1013.60;;;17.80;87.24
64230;BME280;50547;49.498;0.092;2023-07-13T04:24:09;1013.70;;;17.73;87.34
64230;BME280;50547;49.498;0.092;2023-07-13T04:26:38;1013.64;;;17.61;87.72
64230;BME280;50547;49.498;0.092;2023-07-13T04:29:07;1013.68;;;17.62;87.47
64230;BME280;50547;49.498;0.092;2023-07-13T04:31:36;1013.64;;;17.58;87.55
64230;BME280;50547;49.498;0.092;2023-07-13T04:34:06;1013.66;;;17.56;87.79
64230;BME280;50547;49.498;0.092;2023-07-13T04:36:35;1013.66;;;17.63;87.54
64230;BME280;50547;49.498;0.092;2023-07-13T04:39:04;1013.76;;;17.58;87.79
64230;BME280;50547;49.498;0.092;2023-07-13T04:41:33;1013.68;;;17.57;87.57
64230;BME280;50547;49.498;0.092;2023-07-13T04:44:02;1013.70;;;17.66;87.09
64230;BME280;50547;49.498;0.092;2023-07-13T04:46:31;1013.78;;;17.56;87.19
64230;BME280;50547;49.498;0.092;2023-07-13T04:49:01;1013.82;;;17.60;87.63
64230;BME280;50547;49.498;0.092;2023-07-13T04:51:30;1013.84;;;17.61;87.58
64230;BME280;50547;49.498;0.092;2023-07-13T04:53:59;1013.84;;;17.74;86.29
64230;BME280;50547;49.498;0.092;2023-07-13T04:56:28;1013.97;;;17.86;85.35
64230;BME280;50547;49.498;0.092;2023-07-13T04:58:57;1013.90;;;17.93;85.47
64230;BME280;50547;49.498;0.092;2023-07-13T05:01:26;1013.86;;;18.04;84.92
64230;BME280;50547;49.498;0.092;2023-07-13T05:03:55;1013.84;;;17.96;85.01
64230;BME280;50547;49.498;0.092;2023-07-13T05:06:25;1013.88;;;18.10;84.53
64230;BME280;50547;49.498;0.092;2023-07-13T05:08:54;1013.90;;;18.08;85.59
64230;BME280;50547;49.498;0.092;2023-07-13T05:11:23;1013.99;;;17.85;86.71
64230;BME280;50547;49.498;0.092;2023-07-13T05:13:53;1013.99;;;17.91;86.37
64230;BME280;50547;49.498;0.092;2023-07-13T05:16:27;1014.05;;;17.98;86.66
64230;BME280;50547;49.498;0.092;2023-07-13T05:18:56;1014.07;;;17.85;86.47
64230;BME280;50547;49.498;0.092;2023-07-13T05:21:25;1014.03;;;18.00;84.59
64230;BME280;50547;49.498;0.092;2023-07-13T05:23:54;1014.07;;;18.03;84.61
64230;BME280;50547;49.498;0.092;2023-07-13T05:26:24;1014.05;;;17.98;85.05
64230;BME280;50547;49.498;0.092;2023-07-13T05:28:53;1014.13;;;18.11;83.80
64230;BME280;50547;49.498;0.092;2023-07-13T05:31:22;1014.11;;;17.99;84.39
64230;BME280;50547;49.498;0.092;2023-07-13T05:33:51;1014.23;;;18.12;83.68
64230;BME280;50547;49.498;0.092;2023-07-13T05:36:20;1014.21;;;18.08;84.11
64230;BME280;50547;49.498;0.092;2023-07-13T05:38:49;1014.23;;;18.11;84.47
64230;BME280;50547;49.498;0.092;2023-07-13T05:41:18;1014.19;;;18.21;84.13
64230;BME280;50547;49.498;0.092;2023-07-13T05:43:47;1014.19;;;18.11;84.35
64230;BME280;50547;49.498;0.092;2023-07-13T05:46:16;1014.21;;;18.18;84.62
64230;BME280;50547;49.498;0.092;2023-07-13T05:48:46;1014.17;;;18.02;85.09
64230;BME280;50547;49.498;0.092;2023-07-13T05:51:15;1014.13;;;18.25;83.98
64230;BME280;50547;49.498;0.092;2023-07-13T05:53:44;1014.21;;;18.13;84.62
64230;BME280;50547;49.498;0.092;2023-07-13T05:56:13;1014.17;;;17.83;85.56
64230;BME280;50547;49.498;0.092;2023-07-13T05:58:42;1014.29;;;18.09;84.59
64230;BME280;50547;49.498;0.092;2023-07-13T06:01:13;1014.27;;;18.18;84.10
64230;BME280;50547;49.498;0.092;2023-07-13T06:03:42;1014.31;;;18.10;84.16
64230;BME280;50547;49.498;0.092;2023-07-13T06:06:12;1014.27;;;18.32;83.38
64230;BME280;50547;49.498;0.092;2023-07-13T06:08:42;1014.29;;;18.29;83.78
64230;BME280;50547;49.498;0.092;2023-07-13T06:11:14;1014.31;;;18.34;83.24
64230;BME280;50547;49.498;0.092;2023-07-13T06:13:44;1014.40;;;18.34;82.89
64230;BME280;50547;49.498;0.092;2023-07-13T06:16:14;1014.33;;;18.44;82.11
64230;BME280;50547;49.498;0.092;2023-07-13T06:18:44;1014.33;;;18.51;81.53
64230;BME280;50547;49.498;0.092;2023-07-13T06:21:15;1014.40;;;18.52;81.38
64230;BME280;50547;49.498;0.092;2023-07-13T06:23:46;1014.40;;;18.70;81.21
64230;BME280;50547;49.498;0.092;2023-07-13T06:26:17;1014.46;;;18.85;80.50
64230;BME280;50547;49.498;0.092;2023-07-13T06:28:46;1014.40;;;18.81;80.49
64230;BME280;50547;49.498;0.092;2023-07-13T06:31:16;1014.46;;;18.63;81.93
64230;BME280;50547;49.498;0.092;2023-07-13T06:33:45;1014.44;;;18.62;81.59
64230;BME280;50547;49.498;0.092;2023-07-13T06:36:14;1014.52;;;18.76;80.36
64230;BME280;50547;49.498;0.092;2023-07-13T06:38:43;1014.50;;;18.79;80.33
64230;BME280;50547;49.498;0.092;2023-07-13T06:41:13;1014.50;;;18.69;81.50
64230;BME280;50547;49.498;0.092;2023-07-13T06:43:42;1014.60;;;18.65;81.56
64230;BME280;50547;49.498;0.092;2023-07-13T06:46:11;1014.62;;;18.21;83.75
64230;BME280;50547;49.498;0.092;2023-07-13T06:48:40;1014.72;;;18.28;83.36
64230;BME280;50547;49.498;0.092;2023-07-13T06:51:09;1014.70;;;18.52;81.84
64230;BME280;50547;49.498;0.092;2023-07-13T06:53:38;1014.72;;;18.64;81.26
64230;BME280;50547;49.498;0.092;2023-07-13T06:56:07;1014.78;;;18.75;81.09
64230;BME280;50547;49.498;0.092;2023-07-13T06:58:37;1014.82;;;18.63;81.69
64230;BME280;50547;49.498;0.092;2023-07-13T07:01:06;1014.82;;;18.45;82.69
64230;BME280;50547;49.498;0.092;2023-07-13T07:03:35;1014.97;;;18.29;83.06
64230;BME280;50547;49.498;0.092;2023-07-13T07:06:13;1014.85;;;18.33;83.03
64230;BME280;50547;49.498;0.092;2023-07-13T07:08:43;1014.91;;;18.35;82.83
64230;BME280;50547;49.498;0.092;2023-07-13T07:11:16;1015.01;;;18.28;82.48
64230;BME280;50547;49.498;0.092;2023-07-13T07:13:45;1015.11;;;18.40;82.29
64230;BME280;50547;49.498;0.092;2023-07-13T07:16:14;1015.05;;;18.56;81.73
64230;BME280;50547;49.498;0.092;2023-07-13T07:18:44;1015.05;;;18.47;81.65
64230;BME280;50547;49.498;0.092;2023-07-13T07:21:13;1015.23;;;18.53;81.33
64230;BME280;50547;49.498;0.092;2023-07-13T07:23:43;1015.19;;;18.66;81.27
64230;BME280;50547;49.498;0.092;2023-07-13T07:26:12;1015.32;;;18.35;82.67
64230;BME280;50547;49.498;0.092;2023-07-13T07:28:41;1015.29;;;18.54;82.27
64230;BME280;50547;49.498;0.092;2023-07-13T07:31:11;1015.25;;;18.56;82.42
64230;BME280;50547;49.498;0.092;2023-07-13T07:33:40;1015.40;;;18.55;82.76
64230;BME280;50547;49.498;0.092;2023-07-13T07:36:09;1015.36;;;18.58;81.95
64230;BME280;50547;49.498;0.092;2023-07-13T07:38:38;1015.42;;;18.72;81.12
64230;BME280;50547;49.498;0.092;2023-07-13T07:41:08;1015.42;;;18.69;81.83
64230;BME280;50547;49.498;0.092;2023-07-13T07:43:37;1015.42;;;18.47;82.52
64230;BME280;50547;49.498;0.092;2023-07-13T07:46:06;1015.44;;;18.68;82.08
64230;BME280;50547;49.498;0.092;2023-07-13T07:48:35;1015.40;;;18.46;82.72
64230;BME280;50547;49.498;0.092;2023-07-13T07:51:04;1015.44;;;18.49;82.98
64230;BME280;50547;49.498;0.092;2023-07-13T07:53:33;1015.48;;;18.71;81.59
64230;BME280;50547;49.498;0.092;2023-07-13T07:56:03;1015.54;;;18.78;81.19
64230;BME280;50547;49.498;0.092;2023-07-13T07:58:31;1015.52;;;18.91;80.09
64230;BME280;50547;49.498;0.092;2023-07-13T08:01:04;1015.48;;;18.87;80.59
64230;BME280;50547;49.498;0.092;2023-07-13T08:03:33;1015.50;;;18.92;80.29
64230;BME280;50547;49.498;0.092;2023-07-13T08:06:03;1015.60;;;18.88;81.14
64230;BME280;50547;49.498;0.092;2023-07-13T08:08:32;1015.60;;;18.95;80.02
64230;BME280;50547;49.498;0.092;2023-07-13T08:11:04;1015.62;;;18.83;81.18
64230;BME280;50547;49.498;0.092;2023-07-13T08:13:34;1015.50;;;19.05;80.05
64230;BME280;50547;49.498;0.092;2023-07-13T08:16:04;1015.54;;;18.99;80.45
64230;BME280;50547;49.498;0.092;2023-07-13T08:18:33;1015.52;;;18.87;81.36
64230;BME280;50547;49.498;0.092;2023-07-13T08:21:04;1015.54;;;19.04;80.42
64230;BME280;50547;49.498;0.092;2023-07-13T08:23:33;1015.62;;;18.82;81.61
64230;BME280;50547;49.498;0.092;2023-07-13T08:26:03;1015.54;;;18.94;80.83
64230;BME280;50547;49.498;0.092;2023-07-13T08:28:33;1015.50;;;19.03;80.59
64230;BME280;50547;49.498;0.092;2023-07-13T08:31:04;1015.50;;;18.97;81.03
64230;BME280;50547;49.498;0.092;2023-07-13T08:33:34;1015.48;;;18.80;80.88
64230;BME280;50547;49.498;0.092;2023-07-13T08:36:04;1015.42;;;18.99;80.13
64230;BME280;50547;49.498;0.092;2023-07-13T08:38:34;1015.44;;;19.03;79.76
64230;BME280;50547;49.498;0.092;2023-07-13T08:41:11;1015.46;;;19.17;78.80
64230;BME280;50547;49.498;0.092;2023-07-13T08:43:43;1015.46;;;19.26;77.62
64230;BME280;50547;49.498;0.092;2023-07-13T08:46:18;1015.46;;;19.38;78.25
64230;BME280;50547;49.498;0.092;2023-07-13T08:48:50;1015.46;;;19.37;78.00
64230;BME280;50547;49.498;0.092;2023-07-13T08:51:33;1015.42;;;19.56;76.73
64230;BME280;50547;49.498;0.092;2023-07-13T08:54:11;1015.48;;;19.81;75.33
64230;BME280;50547;49.498;0.092;2023-07-13T08:56:42;1015.48;;;20.16;74.34
64230;BME280;50547;49.498;0.092;2023-07-13T08:59:15;1015.50;;;20.28;72.73
64230;BME280;50547;49.498;0.092;2023-07-13T09:01:54;1015.56;;;20.42;72.86
64230;BME280;50547;49.498;0.092;2023-07-13T09:04:30;1015.50;;;20.27;73.69
64230;BME280;50547;49.498;0.092;2023-07-13T09:07:05;1015.52;;;20.63;72.96
64230;BME280;50547;49.498;0.092;2023-07-13T09:09:44;1015.50;;;20.69;71.94
64230;BME280;50547;49.498;0.092;2023-07-13T09:12:22;1015.52;;;20.35;73.36
64230;BME280;50547;49.498;0.092;2023-07-13T09:14:56;1015.52;;;20.62;72.11
64230;BME280;50547;49.498;0.092;2023-07-13T09:17:35;1015.48;;;20.89;71.44
64230;BME280;50547;49.498;0.092;2023-07-13T09:20:21;1015.46;;;20.90;71.49
64230;BME280;50547;49.498;0.092;2023-07-13T09:22:52;1015.42;;;20.69;72.41
64230;BME280;50547;49.498;0.092;2023-07-13T09:25:31;1015.56;;;20.43;74.37
64230;BME280;50547;49.498;0.092;2023-07-13T09:28:05;1015.50;;;19.97;77.33
64230;BME280;50547;49.498;0.092;2023-07-13T09:30:46;1015.50;;;19.50;80.20
64230;BME280;50547;49.498;0.092;2023-07-13T09:33:19;1015.50;;;19.21;80.55
64230;BME280;50547;49.498;0.092;2023-07-13T09:35:48;1015.60;;;19.34;80.98
64230;BME280;50547;49.498;0.092;2023-07-13T09:38:19;1015.52;;;19.16;80.82
64230;BME280;50547;49.498;0.092;2023-07-13T09:41:02;1015.62;;;19.23;80.34
64230;BME280;50547;49.498;0.092;2023-07-13T09:43:33;1015.64;;;19.18;79.54
64230;BME280;50547;49.498;0.092;2023-07-13T09:46:03;1015.60;;;19.15;79.72
64230;BME280;50547;49.498;0.092;2023-07-13T09:48:36;1015.68;;;19.30;77.57
64230;BME280;50547;49.498;0.092;2023-07-13T09:51:13;1015.68;;;19.32;77.31
64230;BME280;50547;49.498;0.092;2023-07-13T09:53:54;1015.66;;;19.56;76.24
64230;BME280;50547;49.498;0.092;2023-07-13T09:56:26;1015.80;;;19.40;75.83
64230;BME280;50547;49.498;0.092;2023-07-13T09:58:56;1015.64;;;19.72;75.05
64230;BME280;50547;49.498;0.092;2023-07-13T10:01:37;1015.68;;;20.06;73.71
64230;BME280;50547;49.498;0.092;2023-07-13T10:04:11;1015.70;;;20.20;72.74
64230;BME280;50547;49.498;0.092;2023-07-13T10:06:41;1015.82;;;20.56;71.70
64230;BME280;50547;49.498;0.092;2023-07-13T10:09:13;1015.82;;;20.46;72.26
64230;BME280;50547;49.498;0.092;2023-07-13T10:11:44;1015.80;;;20.50;72.15
64230;BME280;50547;49.498;0.092;2023-07-13T10:14:16;1015.86;;;20.32;72.72
64230;BME280;50547;49.498;0.092;2023-07-13T10:16:46;1015.86;;;20.23;72.87
64230;BME280;50547;49.498;0.092;2023-07-13T10:19:20;1015.90;;;20.60;70.05
64230;BME280;50547;49.498;0.092;2023-07-13T10:21:54;1015.88;;;20.78;69.74
64230;BME280;50547;49.498;0.092;2023-07-13T10:24:25;1015.90;;;20.66;70.13
64230;BME280;50547;49.498;0.092;2023-07-13T10:27:01;1015.94;;;20.93;69.63
64230;BME280;50547;49.498;0.092;2023-07-13T10:29:37;1015.90;;;20.84;70.62
64230;BME280;50547;49.498;0.092;2023-07-13T10:32:09;1015.94;;;20.73;71.52
64230;BME280;50547;49.498;0.092;2023-07-13T10:34:39;1015.90;;;20.11;75.94
64230;BME280;50547;49.498;0.092;2023-07-13T10:37:16;1015.96;;;19.23;82.83
64230;BME280;50547;49.498;0.092;2023-07-13T10:39:48;1016.14;;;18.53;86.30
64230;BME280;50547;49.498;0.092;2023-07-13T10:42:26;1016.21;;;18.58;85.65
64230;BME280;50547;49.498;0.092;2023-07-13T10:44:56;1016.23;;;18.36;86.57
64230;BME280;50547;49.498;0.092;2023-07-13T10:47:26;1016.21;;;18.04;87.35
64230;BME280;50547;49.498;0.092;2023-07-13T10:49:58;1016.17;;;18.06;87.24
64230;BME280;50547;49.498;0.092;2023-07-13T10:52:42;1016.21;;;18.14;85.72
64230;BME280;50547;49.498;0.092;2023-07-13T10:55:56;1016.19;;;18.24;85.03
64230;BME280;50547;49.498;0.092;2023-07-13T10:58:33;1016.10;;;18.27;84.47
64230;BME280;50547;49.498;0.092;2023-07-13T11:01:07;1016.10;;;18.11;84.98
64230;BME280;50547;49.498;0.092;2023-07-13T11:03:50;1016.16;;;18.48;83.21
64230;BME280;50547;49.498;0.092;2023-07-13T11:06:33;1016.04;;;18.65;82.15
64230;BME280;50547;49.498;0.092;2023-07-13T11:09:19;1016.10;;;18.77;81.71
64230;BME280;50547;49.498;0.092;2023-07-13T11:11:59;1016.12;;;19.02;80.85
64230;BME280;50547;49.498;0.092;2023-07-13T11:14:31;1016.10;;;19.36;79.26
64230;BME280;50547;49.498;0.092;2023-07-13T11:17:29;1016.04;;;19.49;78.85
64230;BME280;50547;49.498;0.092;2023-07-13T11:20:22;1015.98;;;19.78;79.15
64230;BME280;50547;49.498;0.092;2023-07-13T11:22:53;1015.84;;;19.72;78.79
64230;BME280;50547;49.498;0.092;2023-07-13T11:25:36;1015.88;;;19.72;78.57
64230;BME280;50547;49.498;0.092;2023-07-13T11:28:16;1015.84;;;19.72;78.02
64230;BME280;50547;49.498;0.092;2023-07-13T11:30:48;1015.86;;;19.98;77.36
64230;BME280;50547;49.498;0.092;2023-07-13T11:33:19;1015.92;;;20.12;76.24
64230;BME280;50547;49.498;0.092;2023-07-13T11:35:53;1015.96;;;20.10;77.13
64230;BME280;50547;49.498;0.092;2023-07-13T11:38:32;1015.86;;;20.37;75.54
64230;BME280;50547;49.498;0.092;2023-07-13T11:41:16;1015.88;;;20.34;75.86
64230;BME280;50547;49.498;0.092;2023-07-13T11:43:44;1015.88;;;20.32;76.30
64230;BME280;50547;49.498;0.092;2023-07-13T11:46:15;1015.88;;;20.32;76.03
64230;BME280;50547;49.498;0.092;2023-07-13T11:48:46;1015.92;;;20.46;74.48
64230;BME280;50547;49.498;0.092;2023-07-13T11:51:20;1015.96;;;20.27;75.53
64230;BME280;50547;49.498;0.092;2023-07-13T11:53:52;1015.86;;;20.32;74.10
64230;BME280;50547;49.498;0.092;2023-07-13T11:56:23;1015.88;;;20.46;74.21
64230;BME280;50547;49.498;0.092;2023-07-13T11:58:55;1015.84;;;20.77;72.14
64230;BME280;50547;49.498;0.092;2023-07-13T12:01:27;1015.90;;;21.03;70.94
64230;BME280;50547;49.498;0.092;2023-07-13T12:03:54;1015.92;;;21.01;72.20
64230;BME280;50547;49.498;0.092;2023-07-13T12:06:27;1015.84;;;20.77;71.67
64230;BME280;50547;49.498;0.092;2023-07-13T12:08:58;1015.80;;;20.55;72.77
64230;BME280;50547;49.498;0.092;2023-07-13T12:11:28;1015.88;;;20.88;71.29
64230;BME280;50547;49.498;0.092;2023-07-13T12:13:57;1015.88;;;20.87;71.54
64230;BME280;50547;49.498;0.092;2023-07-13T12:16:29;1015.86;;;20.52;72.87
64230;BME280;50547;49.498;0.092;2023-07-13T12:19:00;1015.88;;;20.74;72.26
64230;BME280;50547;49.498;0.092;2023-07-13T12:21:31;1015.92;;;20.98;71.01
64230;BME280;50547;49.498;0.092;2023-07-13T12:24:01;1015.86;;;20.99;71.23
64230;BME280;50547;49.498;0.092;2023-07-13T12:26:31;1015.84;;;20.86;73.75
64230;BME280;50547;49.498;0.092;2023-07-13T12:29:05;1015.84;;;20.69;73.98
64230;BME280;50547;49.498;0.092;2023-07-13T12:31:39;1015.86;;;20.42;75.51
64230;BME280;50547;49.498;0.092;2023-07-13T12:34:11;1015.82;;;20.23;76.61
64230;BME280;50547;49.498;0.092;2023-07-13T12:36:46;1015.68;;;20.17;76.87
64230;BME280;50547;49.498;0.092;2023-07-13T12:39:19;1015.70;;;20.26;76.34
64230;BME280;50547;49.498;0.092;2023-07-13T12:41:50;1015.70;;;20.11;76.79
64230;BME280;50547;49.498;0.092;2023-07-13T12:44:25;1015.68;;;19.97;77.24
64230;BME280;50547;49.498;0.092;2023-07-13T12:46:58;1015.64;;;19.99;76.93
64230;BME280;50547;49.498;0.092;2023-07-13T12:49:30;1015.66;;;20.05;76.35
64230;BME280;50547;49.498;0.092;2023-07-13T12:52:01;1015.82;;;20.41;75.07
64230;BME280;50547;49.498;0.092;2023-07-13T12:54:31;1015.82;;;20.44;75.44
64230;BME280;50547;49.498;0.092;2023-07-13T12:57:00;1015.80;;;20.50;74.90
64230;BME280;50547;49.498;0.092;2023-07-13T12:59:30;1015.70;;;20.25;75.45
64230;BME280;50547;49.498;0.092;2023-07-13T13:02:00;1015.68;;;20.25;75.49
64230;BME280;50547;49.498;0.092;2023-07-13T13:04:30;1015.66;;;20.20;75.64
64230;BME280;50547;49.498;0.092;2023-07-13T13:07:02;1015.80;;;20.29;75.48
64230;BME280;50547;49.498;0.092;2023-07-13T13:09:32;1015.68;;;20.19;75.04
64230;BME280;50547;49.498;0.092;2023-07-13T13:12:02;1015.80;;;20.38;74.68
64230;BME280;50547;49.498;0.092;2023-07-13T13:14:31;1015.78;;;20.20;73.66
64230;BME280;50547;49.498;0.092;2023-07-13T13:17:00;1015.82;;;19.92;75.30
64230;BME280;50547;49.498;0.092;2023-07-13T13:19:28;1015.70;;;20.23;74.72
64230;BME280;50547;49.498;0.092;2023-07-13T13:21:56;1015.68;;;20.58;72.97
64230;BME280;50547;49.498;0.092;2023-07-13T13:24:27;1015.66;;;21.25;70.02
64230;BME280;50547;49.498;0.092;2023-07-13T13:26:56;1015.80;;;21.55;67.74
64230;BME280;50547;49.498;0.092;2023-07-13T13:29:23;1015.78;;;21.94;65.75
64230;BME280;50547;49.498;0.092;2023-07-13T13:31:54;1015.70;;;22.08;65.13